sensor_id;sensor_type;location;lat;lon;timestamp;temperature;humidity
7972;DHT22;4031;49.758;6.120;2024-01-30T00:01:51;0.40;99.90
7972;DHT22;4031;49.758;6.120;2024-01-30T00:04:17;0.40;99.90
7972;DHT22;4031;49.758;6.120;2024-01-30T00:06:46;0.30;99.90
7972;DHT22;4031;49.758;6.120;2024-01-30T00:09:12;0.30;99.90
7972;DHT22;4031;49.758;6.120;2024-01-30T00:11:38;0.30;99.90
7972;DHT22;4031;49.758;6.120;2024-01-30T00:14:04;0.20;99.90
7972;DHT22;4031;49.758;6.120;2024-01-30T00:16:30;0.20;99.90
7972;DHT22;4031;49.758;6.120;2024-01-30T00:18:56;0.20;99.90
7972;DHT22;4031;49.758;6.120;2024-01-30T00:21:22;0.20;99.90
7972;DHT22;4031;49.758;6.120;2024-01-30T00:23:48;0.10;99.90
7972;DHT22;4031;49.758;6.120;2024-01-30T00:26:14;0.20;99.90
7972;DHT22;4031;49.758;6.120;2024-01-30T00:28:41;0.20;99.90
7972;DHT22;4031;49.758;6.120;2024-01-30T00:31:07;0.20;99.90
7972;DHT22;4031;49.758;6.120;2024-01-30T00:33:33;0.20;99.90
7972;DHT22;4031;49.758;6.120;2024-01-30T00:35:59;0.30;99.90
7972;DHT22;4031;49.758;6.120;2024-01-30T00:38:24;0.20;99.90
7972;DHT22;4031;49.758;6.120;2024-01-30T00:40:50;0.20;99.90
7972;DHT22;4031;49.758;6.120;2024-01-30T00:43:16;0.20;99.90
7972;DHT22;4031;49.758;6.120;2024-01-30T00:45:45;0.20;99.90
7972;DHT22;4031;49.758;6.120;2024-01-30T00:48:11;0.20;99.90
7972;DHT22;4031;49.758;6.120;2024-01-30T00:50:37;0.20;99.90
7972;DHT22;4031;49.758;6.120;2024-01-30T00:53:02;0.30;99.90
7972;DHT22;4031;49.758;6.120;2024-01-30T00:55:28;0.20;99.90
7972;DHT22;4031;49.758;6.120;2024-01-30T00:57:54;0.10;99.90
7972;DHT22;4031;49.758;6.120;2024-01-30T01:00:20;0.20;99.90
7972;DHT22;4031;49.758;6.120;2024-01-30T01:02:46;0.20;99.90
7972;DHT22;4031;49.758;6.120;2024-01-30T01:05:12;0.20;99.90
7972;DHT22;4031;49.758;6.120;2024-01-30T01:07:38;0.20;99.90
7972;DHT22;4031;49.758;6.120;2024-01-30T01:10:05;0.20;99.90
7972;DHT22;4031;49.758;6.120;2024-01-30T01:12:31;0.10;99.90
7972;DHT22;4031;49.758;6.120;2024-01-30T01:14:57;0.10;99.90
7972;DHT22;4031;49.758;6.120;2024-01-30T01:17:23;0.00;99.90
7972;DHT22;4031;49.758;6.120;2024-01-30T01:19:48;0.00;99.90
7972;DHT22;4031;49.758;6.120;2024-01-30T01:22:16;0.00;99.90
7972;DHT22;4031;49.758;6.120;2024-01-30T01:24:42;0.00;99.90
7972;DHT22;4031;49.758;6.120;2024-01-30T01:27:08;0.00;99.90
7972;DHT22;4031;49.758;6.120;2024-01-30T01:29:34;-0.10;99.90
7972;DHT22;4031;49.758;6.120;2024-01-30T01:31:59;-0.10;99.90
7972;DHT22;4031;49.758;6.120;2024-01-30T01:34:25;-0.10;99.90
7972;DHT22;4031;49.758;6.120;2024-01-30T01:36:51;-0.20;99.90
7972;DHT22;4031;49.758;6.120;2024-01-30T01:39:17;-0.20;99.90
7972;DHT22;4031;49.758;6.120;2024-01-30T01:41:43;-0.30;99.90
7972;DHT22;4031;49.758;6.120;2024-01-30T01:44:09;-0.50;99.90
7972;DHT22;4031;49.758;6.120;2024-01-30T01:46:35;-0.40;99.90
7972;DHT22;4031;49.758;6.120;2024-01-30T01:49:02;-0.40;99.90
7972;DHT22;4031;49.758;6.120;2024-01-30T01:51:31;-0.40;99.90
7972;DHT22;4031;49.758;6.120;2024-01-30T01:54:02;-0.50;99.90
7972;DHT22;4031;49.758;6.120;2024-01-30T01:56:29;-0.50;99.90
7972;DHT22;4031;49.758;6.120;2024-01-30T01:59:00;-0.50;99.90
7972;DHT22;4031;49.758;6.120;2024-01-30T02:01:29;-0.50;99.90
7972;DHT22;4031;49.758;6.120;2024-01-30T02:03:55;-0.50;99.90
7972;DHT22;4031;49.758;6.120;2024-01-30T02:06:21;-0.50;99.90
7972;DHT22;4031;49.758;6.120;2024-01-30T02:08:47;-0.50;99.90
7972;DHT22;4031;49.758;6.120;2024-01-30T02:11:13;-0.50;99.90
7972;DHT22;4031;49.758;6.120;2024-01-30T02:13:39;-0.50;99.90
7972;DHT22;4031;49.758;6.120;2024-01-30T02:16:06;-0.50;99.90
7972;DHT22;4031;49.758;6.120;2024-01-30T02:18:32;-0.40;99.90
7972;DHT22;4031;49.758;6.120;2024-01-30T02:20:58;-0.40;99.90
7972;DHT22;4031;49.758;6.120;2024-01-30T02:23:27;-0.40;99.90
7972;DHT22;4031;49.758;6.120;2024-01-30T02:25:53;-0.40;99.90
7972;DHT22;4031;49.758;6.120;2024-01-30T02:28:19;-0.40;99.90
7972;DHT22;4031;49.758;6.120;2024-01-30T02:30:46;-0.40;99.90
7972;DHT22;4031;49.758;6.120;2024-01-30T02:33:12;-0.40;99.90
7972;DHT22;4031;49.758;6.120;2024-01-30T02:35:38;-0.30;99.90
7972;DHT22;4031;49.758;6.120;2024-01-30T02:38:05;-0.20;99.90
7972;DHT22;4031;49.758;6.120;2024-01-30T02:40:31;-0.30;99.90
7972;DHT22;4031;49.758;6.120;2024-01-30T02:42:58;-0.20;99.90
7972;DHT22;4031;49.758;6.120;2024-01-30T02:45:25;-0.20;99.90
7972;DHT22;4031;49.758;6.120;2024-01-30T02:47:50;-0.10;99.90
7972;DHT22;4031;49.758;6.120;2024-01-30T02:50:16;-0.10;99.90
7972;DHT22;4031;49.758;6.120;2024-01-30T02:52:42;-0.10;99.90
7972;DHT22;4031;49.758;6.120;2024-01-30T02:55:09;-0.10;99.90
7972;DHT22;4031;49.758;6.120;2024-01-30T02:57:35;-0.10;99.90
7972;DHT22;4031;49.758;6.120;2024-01-30T03:00:01;-0.10;99.90
7972;DHT22;4031;49.758;6.120;2024-01-30T03:02:29;-0.10;99.90
7972;DHT22;4031;49.758;6.120;2024-01-30T03:04:55;-0.10;99.90
7972;DHT22;4031;49.758;6.120;2024-01-30T03:07:20;-0.10;99.90
7972;DHT22;4031;49.758;6.120;2024-01-30T03:09:46;-0.10;99.90
7972;DHT22;4031;49.758;6.120;2024-01-30T03:12:12;-0.10;99.90
7972;DHT22;4031;49.758;6.120;2024-01-30T03:14:37;-0.20;99.90
7972;DHT22;4031;49.758;6.120;2024-01-30T03:17:03;-0.20;99.90
7972;DHT22;4031;49.758;6.120;2024-01-30T03:19:29;-0.20;99.90
7972;DHT22;4031;49.758;6.120;2024-01-30T03:21:55;-0.10;99.90
7972;DHT22;4031;49.758;6.120;2024-01-30T03:24:20;-0.20;99.90
7972;DHT22;4031;49.758;6.120;2024-01-30T03:26:46;-0.20;99.90
7972;DHT22;4031;49.758;6.120;2024-01-30T03:29:12;-0.20;99.90
7972;DHT22;4031;49.758;6.120;2024-01-30T03:31:39;-0.20;99.90
7972;DHT22;4031;49.758;6.120;2024-01-30T03:34:05;-0.20;99.90
7972;DHT22;4031;49.758;6.120;2024-01-30T03:36:31;-0.20;99.90
7972;DHT22;4031;49.758;6.120;2024-01-30T03:38:59;-0.20;99.90
7972;DHT22;4031;49.758;6.120;2024-01-30T03:41:25;-0.20;99.90
7972;DHT22;4031;49.758;6.120;2024-01-30T03:43:50;-0.20;99.90
7972;DHT22;4031;49.758;6.120;2024-01-30T03:46:16;-0.20;99.90
7972;DHT22;4031;49.758;6.120;2024-01-30T03:48:42;-0.20;99.90
7972;DHT22;4031;49.758;6.120;2024-01-30T03:51:08;-0.20;99.90
7972;DHT22;4031;49.758;6.120;2024-01-30T03:53:34;-0.30;99.90
7972;DHT22;4031;49.758;6.120;2024-01-30T03:56:00;-0.30;99.90
7972;DHT22;4031;49.758;6.120;2024-01-30T03:58:26;-0.30;99.90
7972;DHT22;4031;49.758;6.120;2024-01-30T04:00:52;-0.30;99.90
7972;DHT22;4031;49.758;6.120;2024-01-30T04:03:18;-0.30;99.90
7972;DHT22;4031;49.758;6.120;2024-01-30T04:05:43;-0.30;99.90
7972;DHT22;4031;49.758;6.120;2024-01-30T04:08:09;-0.30;99.90
7972;DHT22;4031;49.758;6.120;2024-01-30T04:10:35;-0.40;99.90
7972;DHT22;4031;49.758;6.120;2024-01-30T04:13:01;-0.30;99.90
7972;DHT22;4031;49.758;6.120;2024-01-30T04:15:27;-0.30;99.90
7972;DHT22;4031;49.758;6.120;2024-01-30T04:17:57;-0.40;99.90
7972;DHT22;4031;49.758;6.120;2024-01-30T04:20:24;-0.30;99.90
7972;DHT22;4031;49.758;6.120;2024-01-30T04:22:51;-0.30;99.90
7972;DHT22;4031;49.758;6.120;2024-01-30T04:25:16;-0.30;99.90
7972;DHT22;4031;49.758;6.120;2024-01-30T04:27:42;-0.30;99.90
7972;DHT22;4031;49.758;6.120;2024-01-30T04:30:08;-0.40;99.90
7972;DHT22;4031;49.758;6.120;2024-01-30T04:32:35;-0.30;99.90
7972;DHT22;4031;49.758;6.120;2024-01-30T04:35:02;-0.40;99.90
7972;DHT22;4031;49.758;6.120;2024-01-30T04:37:28;-0.30;99.90
7972;DHT22;4031;49.758;6.120;2024-01-30T04:39:53;-0.30;99.90
7972;DHT22;4031;49.758;6.120;2024-01-30T04:42:19;-0.30;99.90
7972;DHT22;4031;49.758;6.120;2024-01-30T04:44:45;-0.30;99.90
7972;DHT22;4031;49.758;6.120;2024-01-30T04:47:11;-0.30;99.90
7972;DHT22;4031;49.758;6.120;2024-01-30T04:49:39;-0.30;99.90
7972;DHT22;4031;49.758;6.120;2024-01-30T04:52:06;-0.40;99.90
7972;DHT22;4031;49.758;6.120;2024-01-30T04:54:32;-0.30;99.90
7972;DHT22;4031;49.758;6.120;2024-01-30T04:56:58;-0.30;99.90
7972;DHT22;4031;49.758;6.120;2024-01-30T04:59:24;-0.30;99.90
7972;DHT22;4031;49.758;6.120;2024-01-30T05:01:49;-0.40;99.90
7972;DHT22;4031;49.758;6.120;2024-01-30T05:04:15;-0.40;99.90
7972;DHT22;4031;49.758;6.120;2024-01-30T05:06:41;-0.40;99.90
7972;DHT22;4031;49.758;6.120;2024-01-30T05:09:07;-0.40;99.90
7972;DHT22;4031;49.758;6.120;2024-01-30T05:11:40;-0.40;99.90
7972;DHT22;4031;49.758;6.120;2024-01-30T05:14:06;-0.40;99.90
7972;DHT22;4031;49.758;6.120;2024-01-30T05:16:32;-0.40;99.90
7972;DHT22;4031;49.758;6.120;2024-01-30T05:18:58;-0.40;99.90
7972;DHT22;4031;49.758;6.120;2024-01-30T05:21:24;-0.40;99.90
7972;DHT22;4031;49.758;6.120;2024-01-30T05:23:50;-0.40;99.90
7972;DHT22;4031;49.758;6.120;2024-01-30T05:26:17;-0.40;99.90
7972;DHT22;4031;49.758;6.120;2024-01-30T05:28:43;-0.40;99.90
7972;DHT22;4031;49.758;6.120;2024-01-30T05:31:11;-0.40;99.90
7972;DHT22;4031;49.758;6.120;2024-01-30T05:33:37;-0.40;99.90
7972;DHT22;4031;49.758;6.120;2024-01-30T05:36:03;-0.40;99.90
7972;DHT22;4031;49.758;6.120;2024-01-30T05:38:29;-0.40;99.90
7972;DHT22;4031;49.758;6.120;2024-01-30T05:40:56;-0.40;99.90
7972;DHT22;4031;49.758;6.120;2024-01-30T05:43:23;-0.40;99.90
7972;DHT22;4031;49.758;6.120;2024-01-30T05:45:49;-0.40;99.90
7972;DHT22;4031;49.758;6.120;2024-01-30T05:48:16;-0.40;99.90
7972;DHT22;4031;49.758;6.120;2024-01-30T05:50:41;-0.40;99.90
7972;DHT22;4031;49.758;6.120;2024-01-30T05:53:07;-0.40;99.90
7972;DHT22;4031;49.758;6.120;2024-01-30T05:55:33;-0.40;99.90
7972;DHT22;4031;49.758;6.120;2024-01-30T05:57:58;-0.40;99.90
7972;DHT22;4031;49.758;6.120;2024-01-30T06:00:24;-0.30;99.90
7972;DHT22;4031;49.758;6.120;2024-01-30T06:02:50;-0.30;99.90
7972;DHT22;4031;49.758;6.120;2024-01-30T06:05:16;-0.30;99.90
7972;DHT22;4031;49.758;6.120;2024-01-30T06:07:42;-0.30;99.90
7972;DHT22;4031;49.758;6.120;2024-01-30T06:10:08;-0.30;99.90
7972;DHT22;4031;49.758;6.120;2024-01-30T06:12:34;-0.30;99.90
7972;DHT22;4031;49.758;6.120;2024-01-30T06:15:01;-0.30;99.90
7972;DHT22;4031;49.758;6.120;2024-01-30T06:17:27;-0.30;99.90
7972;DHT22;4031;49.758;6.120;2024-01-30T06:19:53;-0.30;99.90
7972;DHT22;4031;49.758;6.120;2024-01-30T06:22:19;-0.30;99.90
7972;DHT22;4031;49.758;6.120;2024-01-30T06:24:45;-0.30;99.90
7972;DHT22;4031;49.758;6.120;2024-01-30T06:27:13;-0.30;99.90
7972;DHT22;4031;49.758;6.120;2024-01-30T06:29:40;-0.30;99.90
7972;DHT22;4031;49.758;6.120;2024-01-30T06:32:06;-0.30;99.90
7972;DHT22;4031;49.758;6.120;2024-01-30T06:34:31;-0.40;99.90
7972;DHT22;4031;49.758;6.120;2024-01-30T06:36:57;-0.40;99.90
7972;DHT22;4031;49.758;6.120;2024-01-30T06:39:23;-0.30;99.90
7972;DHT22;4031;49.758;6.120;2024-01-30T06:41:49;-0.30;99.90
7972;DHT22;4031;49.758;6.120;2024-01-30T06:44:14;-0.30;99.90
7972;DHT22;4031;49.758;6.120;2024-01-30T06:46:40;-0.30;99.90
7972;DHT22;4031;49.758;6.120;2024-01-30T06:49:06;-0.30;99.90
7972;DHT22;4031;49.758;6.120;2024-01-30T06:51:31;-0.40;99.90
7972;DHT22;4031;49.758;6.120;2024-01-30T06:53:57;-0.40;99.90
7972;DHT22;4031;49.758;6.120;2024-01-30T06:56:23;-0.40;99.90
7972;DHT22;4031;49.758;6.120;2024-01-30T06:58:49;-0.40;99.90
7972;DHT22;4031;49.758;6.120;2024-01-30T07:01:16;-0.40;99.90
7972;DHT22;4031;49.758;6.120;2024-01-30T07:03:42;-0.50;99.90
7972;DHT22;4031;49.758;6.120;2024-01-30T07:06:09;-0.50;99.90
7972;DHT22;4031;49.758;6.120;2024-01-30T07:08:36;-0.50;99.90
7972;DHT22;4031;49.758;6.120;2024-01-30T07:11:07;-0.60;99.90
7972;DHT22;4031;49.758;6.120;2024-01-30T07:13:34;-0.60;99.90
7972;DHT22;4031;49.758;6.120;2024-01-30T07:16:00;-0.60;99.90
7972;DHT22;4031;49.758;6.120;2024-01-30T07:18:26;-0.60;99.90
7972;DHT22;4031;49.758;6.120;2024-01-30T07:20:51;-0.60;99.90
7972;DHT22;4031;49.758;6.120;2024-01-30T07:23:17;-0.60;99.90
7972;DHT22;4031;49.758;6.120;2024-01-30T07:25:44;-0.80;99.90
7972;DHT22;4031;49.758;6.120;2024-01-30T07:28:10;-0.60;99.90
7972;DHT22;4031;49.758;6.120;2024-01-30T07:30:37;-0.50;99.90
7972;DHT22;4031;49.758;6.120;2024-01-30T07:33:03;-0.50;99.90
7972;DHT22;4031;49.758;6.120;2024-01-30T07:35:29;-0.50;99.90
7972;DHT22;4031;49.758;6.120;2024-01-30T07:37:54;-0.40;99.90
7972;DHT22;4031;49.758;6.120;2024-01-30T07:40:20;-0.20;99.90
7972;DHT22;4031;49.758;6.120;2024-01-30T07:42:47;-0.30;99.90
7972;DHT22;4031;49.758;6.120;2024-01-30T07:45:13;-0.30;99.90
7972;DHT22;4031;49.758;6.120;2024-01-30T07:47:39;-0.20;99.90
7972;DHT22;4031;49.758;6.120;2024-01-30T07:50:05;-0.20;99.90
7972;DHT22;4031;49.758;6.120;2024-01-30T07:52:31;-0.10;99.90
7972;DHT22;4031;49.758;6.120;2024-01-30T07:54:57;0.00;99.90
7972;DHT22;4031;49.758;6.120;2024-01-30T07:57:23;0.10;99.90
7972;DHT22;4031;49.758;6.120;2024-01-30T07:59:49;0.10;99.90
7972;DHT22;4031;49.758;6.120;2024-01-30T08:02:15;0.20;99.90
7972;DHT22;4031;49.758;6.120;2024-01-30T08:04:41;0.20;99.90
7972;DHT22;4031;49.758;6.120;2024-01-30T08:07:06;0.20;99.90
7972;DHT22;4031;49.758;6.120;2024-01-30T08:09:32;0.30;99.90
7972;DHT22;4031;49.758;6.120;2024-01-30T08:11:58;0.30;99.90
7972;DHT22;4031;49.758;6.120;2024-01-30T08:14:24;0.30;99.90
7972;DHT22;4031;49.758;6.120;2024-01-30T08:16:51;0.30;99.90
7972;DHT22;4031;49.758;6.120;2024-01-30T08:19:17;0.40;99.90
7972;DHT22;4031;49.758;6.120;2024-01-30T08:21:42;0.40;99.90
7972;DHT22;4031;49.758;6.120;2024-01-30T08:24:08;0.50;99.90
7972;DHT22;4031;49.758;6.120;2024-01-30T08:26:34;0.50;99.90
7972;DHT22;4031;49.758;6.120;2024-01-30T08:29:01;0.60;99.90
7972;DHT22;4031;49.758;6.120;2024-01-30T08:31:27;0.60;99.90
7972;DHT22;4031;49.758;6.120;2024-01-30T08:33:52;0.70;99.90
7972;DHT22;4031;49.758;6.120;2024-01-30T08:36:18;0.70;99.90
7972;DHT22;4031;49.758;6.120;2024-01-30T08:38:45;0.70;99.90
7972;DHT22;4031;49.758;6.120;2024-01-30T08:41:11;0.60;99.90
7972;DHT22;4031;49.758;6.120;2024-01-30T08:43:36;0.80;99.90
7972;DHT22;4031;49.758;6.120;2024-01-30T08:46:03;0.80;99.90
7972;DHT22;4031;49.758;6.120;2024-01-30T08:48:29;0.90;99.90
7972;DHT22;4031;49.758;6.120;2024-01-30T08:50:54;0.90;99.90
7972;DHT22;4031;49.758;6.120;2024-01-30T08:53:20;1.00;99.90
7972;DHT22;4031;49.758;6.120;2024-01-30T08:55:46;1.00;99.90
7972;DHT22;4031;49.758;6.120;2024-01-30T08:58:12;1.10;99.90
7972;DHT22;4031;49.758;6.120;2024-01-30T09:00:38;1.30;99.90
7972;DHT22;4031;49.758;6.120;2024-01-30T09:03:04;1.40;99.90
7972;DHT22;4031;49.758;6.120;2024-01-30T09:05:30;1.50;99.90
7972;DHT22;4031;49.758;6.120;2024-01-30T09:07:55;1.60;99.90
7972;DHT22;4031;49.758;6.120;2024-01-30T09:10:21;1.70;99.90
7972;DHT22;4031;49.758;6.120;2024-01-30T09:12:47;1.80;99.90
7972;DHT22;4031;49.758;6.120;2024-01-30T09:15:14;1.80;99.90
7972;DHT22;4031;49.758;6.120;2024-01-30T09:17:40;1.90;99.90
7972;DHT22;4031;49.758;6.120;2024-01-30T09:20:06;1.90;99.90
7972;DHT22;4031;49.758;6.120;2024-01-30T09:22:32;2.00;99.90
7972;DHT22;4031;49.758;6.120;2024-01-30T09:24:58;2.00;99.90
7972;DHT22;4031;49.758;6.120;2024-01-30T09:27:24;2.00;99.90
7972;DHT22;4031;49.758;6.120;2024-01-30T09:29:50;2.10;99.90
7972;DHT22;4031;49.758;6.120;2024-01-30T09:32:16;2.10;99.90
7972;DHT22;4031;49.758;6.120;2024-01-30T09:34:43;2.20;99.90
7972;DHT22;4031;49.758;6.120;2024-01-30T09:37:08;2.20;99.90
7972;DHT22;4031;49.758;6.120;2024-01-30T09:39:34;2.30;99.90
7972;DHT22;4031;49.758;6.120;2024-01-30T09:42:17;2.20;99.90
7972;DHT22;4031;49.758;6.120;2024-01-30T09:44:50;2.30;99.90
7972;DHT22;4031;49.758;6.120;2024-01-30T09:47:17;2.40;99.90
7972;DHT22;4031;49.758;6.120;2024-01-30T09:49:43;2.50;99.90
7972;DHT22;4031;49.758;6.120;2024-01-30T09:52:10;2.60;99.90
7972;DHT22;4031;49.758;6.120;2024-01-30T09:54:36;2.60;99.90
7972;DHT22;4031;49.758;6.120;2024-01-30T09:57:04;2.70;99.90
7972;DHT22;4031;49.758;6.120;2024-01-30T09:59:30;2.70;99.90
7972;DHT22;4031;49.758;6.120;2024-01-30T10:01:57;2.70;99.90
7972;DHT22;4031;49.758;6.120;2024-01-30T10:04:23;2.80;99.90
7972;DHT22;4031;49.758;6.120;2024-01-30T10:06:50;3.00;99.90
7972;DHT22;4031;49.758;6.120;2024-01-30T10:09:16;3.10;99.90
7972;DHT22;4031;49.758;6.120;2024-01-30T10:11:42;3.30;99.90
7972;DHT22;4031;49.758;6.120;2024-01-30T10:14:07;3.40;99.90
7972;DHT22;4031;49.758;6.120;2024-01-30T10:16:34;3.50;99.90
7972;DHT22;4031;49.758;6.120;2024-01-30T10:19:00;3.80;99.90
7972;DHT22;4031;49.758;6.120;2024-01-30T10:21:26;4.10;99.90
7972;DHT22;4031;49.758;6.120;2024-01-30T10:23:52;4.40;99.90
7972;DHT22;4031;49.758;6.120;2024-01-30T10:26:18;4.60;99.90
7972;DHT22;4031;49.758;6.120;2024-01-30T10:28:45;4.80;99.90
7972;DHT22;4031;49.758;6.120;2024-01-30T10:31:11;5.20;99.90
7972;DHT22;4031;49.758;6.120;2024-01-30T10:33:36;5.50;99.90
7972;DHT22;4031;49.758;6.120;2024-01-30T10:36:04;5.70;99.90
7972;DHT22;4031;49.758;6.120;2024-01-30T10:38:32;5.80;99.90
7972;DHT22;4031;49.758;6.120;2024-01-30T10:41:00;5.80;99.90
7972;DHT22;4031;49.758;6.120;2024-01-30T10:43:35;5.80;99.90
7972;DHT22;4031;49.758;6.120;2024-01-30T10:46:11;5.70;99.90
7972;DHT22;4031;49.758;6.120;2024-01-30T10:48:50;5.60;99.90
7972;DHT22;4031;49.758;6.120;2024-01-30T10:51:27;5.50;99.90
7972;DHT22;4031;49.758;6.120;2024-01-30T10:53:53;5.50;99.90
7972;DHT22;4031;49.758;6.120;2024-01-30T10:56:22;5.60;99.90
7972;DHT22;4031;49.758;6.120;2024-01-30T10:58:51;5.60;99.90
7972;DHT22;4031;49.758;6.120;2024-01-30T11:01:25;5.70;99.90
7972;DHT22;4031;49.758;6.120;2024-01-30T11:03:52;5.70;99.90
7972;DHT22;4031;49.758;6.120;2024-01-30T11:06:18;5.80;99.90
7972;DHT22;4031;49.758;6.120;2024-01-30T11:09:03;5.90;99.90
7972;DHT22;4031;49.758;6.120;2024-01-30T11:14:26;5.80;99.90
7972;DHT22;4031;49.758;6.120;2024-01-30T11:16:52;5.90;99.90
7972;DHT22;4031;49.758;6.120;2024-01-30T11:19:25;5.90;99.90
7972;DHT22;4031;49.758;6.120;2024-01-30T11:21:55;6.10;99.90
7972;DHT22;4031;49.758;6.120;2024-01-30T11:24:23;6.30;99.90
7972;DHT22;4031;49.758;6.120;2024-01-30T11:26:56;6.50;99.90
7972;DHT22;4031;49.758;6.120;2024-01-30T11:29:29;6.70;99.90
7972;DHT22;4031;49.758;6.120;2024-01-30T11:31:56;6.80;99.90
7972;DHT22;4031;49.758;6.120;2024-01-30T11:34:23;7.00;99.90
7972;DHT22;4031;49.758;6.120;2024-01-30T11:36:56;7.10;99.90
7972;DHT22;4031;49.758;6.120;2024-01-30T11:39:29;7.30;99.90
7972;DHT22;4031;49.758;6.120;2024-01-30T11:41:55;7.50;99.90
7972;DHT22;4031;49.758;6.120;2024-01-30T11:44:22;8.00;99.90
7972;DHT22;4031;49.758;6.120;2024-01-30T11:46:49;8.50;99.90
7972;DHT22;4031;49.758;6.120;2024-01-30T11:49:16;8.90;99.90
7972;DHT22;4031;49.758;6.120;2024-01-30T11:51:48;9.50;99.90
7972;DHT22;4031;49.758;6.120;2024-01-30T11:54:15;9.80;99.90
7972;DHT22;4031;49.758;6.120;2024-01-30T11:56:42;9.80;99.90
7972;DHT22;4031;49.758;6.120;2024-01-30T11:59:08;9.80;99.90
7972;DHT22;4031;49.758;6.120;2024-01-30T12:01:34;9.70;99.90
7972;DHT22;4031;49.758;6.120;2024-01-30T12:04:00;9.60;99.90
7972;DHT22;4031;49.758;6.120;2024-01-30T12:06:27;9.60;99.90
7972;DHT22;4031;49.758;6.120;2024-01-30T12:09:00;9.60;99.90
7972;DHT22;4031;49.758;6.120;2024-01-30T12:11:29;9.70;99.90
7972;DHT22;4031;49.758;6.120;2024-01-30T12:13:56;9.60;99.90
7972;DHT22;4031;49.758;6.120;2024-01-30T12:16:22;9.40;99.90
7972;DHT22;4031;49.758;6.120;2024-01-30T12:18:48;9.20;99.90
7972;DHT22;4031;49.758;6.120;2024-01-30T12:21:17;9.10;99.90
7972;DHT22;4031;49.758;6.120;2024-01-30T12:23:43;9.00;99.90
7972;DHT22;4031;49.758;6.120;2024-01-30T12:26:10;8.90;99.90
7972;DHT22;4031;49.758;6.120;2024-01-30T12:28:36;8.80;99.90
7972;DHT22;4031;49.758;6.120;2024-01-30T12:31:03;8.70;99.90
7972;DHT22;4031;49.758;6.120;2024-01-30T12:33:29;8.60;99.90
7972;DHT22;4031;49.758;6.120;2024-01-30T12:35:56;8.60;99.90
7972;DHT22;4031;49.758;6.120;2024-01-30T12:38:25;8.60;99.90
7972;DHT22;4031;49.758;6.120;2024-01-30T12:40:54;8.60;99.90
7972;DHT22;4031;49.758;6.120;2024-01-30T12:43:22;8.60;99.90
7972;DHT22;4031;49.758;6.120;2024-01-30T12:45:49;8.50;99.90
7972;DHT22;4031;49.758;6.120;2024-01-30T12:48:15;8.50;99.90
7972;DHT22;4031;49.758;6.120;2024-01-30T12:50:41;8.60;99.90
7972;DHT22;4031;49.758;6.120;2024-01-30T12:53:07;8.60;99.90
7972;DHT22;4031;49.758;6.120;2024-01-30T12:55:34;8.70;99.90
7972;DHT22;4031;49.758;6.120;2024-01-30T12:58:00;8.70;99.90
7972;DHT22;4031;49.758;6.120;2024-01-30T13:00:26;8.80;99.90
7972;DHT22;4031;49.758;6.120;2024-01-30T13:02:52;8.90;99.90
7972;DHT22;4031;49.758;6.120;2024-01-30T13:05:18;9.00;99.90
7972;DHT22;4031;49.758;6.120;2024-01-30T13:07:44;9.10;99.90
7972;DHT22;4031;49.758;6.120;2024-01-30T13:10:10;9.20;99.90
7972;DHT22;4031;49.758;6.120;2024-01-30T13:12:36;9.30;99.90
7972;DHT22;4031;49.758;6.120;2024-01-30T13:15:04;9.30;99.90
7972;DHT22;4031;49.758;6.120;2024-01-30T13:17:31;9.40;99.90
7972;DHT22;4031;49.758;6.120;2024-01-30T13:19:57;9.50;99.90
7972;DHT22;4031;49.758;6.120;2024-01-30T13:22:23;9.40;99.90
7972;DHT22;4031;49.758;6.120;2024-01-30T13:24:50;9.50;99.90
7972;DHT22;4031;49.758;6.120;2024-01-30T13:27:16;9.60;99.90
7972;DHT22;4031;49.758;6.120;2024-01-30T13:29:42;9.60;99.90
7972;DHT22;4031;49.758;6.120;2024-01-30T13:32:08;9.50;99.90
7972;DHT22;4031;49.758;6.120;2024-01-30T13:34:33;9.60;99.90
7972;DHT22;4031;49.758;6.120;2024-01-30T13:36:59;9.60;99.90
7972;DHT22;4031;49.758;6.120;2024-01-30T13:39:25;9.60;99.90
7972;DHT22;4031;49.758;6.120;2024-01-30T13:41:51;9.70;99.90
7972;DHT22;4031;49.758;6.120;2024-01-30T13:44:16;9.70;99.90
7972;DHT22;4031;49.758;6.120;2024-01-30T13:46:43;9.70;99.90
7972;DHT22;4031;49.758;6.120;2024-01-30T13:49:09;9.70;99.90
7972;DHT22;4031;49.758;6.120;2024-01-30T13:51:35;9.70;99.90
7972;DHT22;4031;49.758;6.120;2024-01-30T13:54:01;9.80;99.90
7972;DHT22;4031;49.758;6.120;2024-01-30T13:56:27;9.80;99.90
7972;DHT22;4031;49.758;6.120;2024-01-30T13:58:53;9.80;99.90
7972;DHT22;4031;49.758;6.120;2024-01-30T14:01:21;9.90;99.90
7972;DHT22;4031;49.758;6.120;2024-01-30T14:03:46;9.90;99.90
7972;DHT22;4031;49.758;6.120;2024-01-30T14:06:12;9.90;99.90
7972;DHT22;4031;49.758;6.120;2024-01-30T14:08:38;9.90;99.90
7972;DHT22;4031;49.758;6.120;2024-01-30T14:11:04;9.90;99.90
7972;DHT22;4031;49.758;6.120;2024-01-30T14:13:30;10.00;99.90
7972;DHT22;4031;49.758;6.120;2024-01-30T14:15:58;10.00;99.90
7972;DHT22;4031;49.758;6.120;2024-01-30T14:18:24;10.00;99.90
7972;DHT22;4031;49.758;6.120;2024-01-30T14:20:51;10.00;99.90
7972;DHT22;4031;49.758;6.120;2024-01-30T14:23:17;10.00;99.90
7972;DHT22;4031;49.758;6.120;2024-01-30T14:25:43;10.10;99.90
7972;DHT22;4031;49.758;6.120;2024-01-30T14:28:13;9.90;99.90
7972;DHT22;4031;49.758;6.120;2024-01-30T14:30:39;9.90;99.90
7972;DHT22;4031;49.758;6.120;2024-01-30T14:33:05;9.90;99.90
7972;DHT22;4031;49.758;6.120;2024-01-30T14:35:32;9.80;99.90
7972;DHT22;4031;49.758;6.120;2024-01-30T14:37:59;9.80;99.90
7972;DHT22;4031;49.758;6.120;2024-01-30T14:40:24;9.80;99.90
7972;DHT22;4031;49.758;6.120;2024-01-30T14:42:50;9.80;99.90
7972;DHT22;4031;49.758;6.120;2024-01-30T14:45:16;9.90;99.90
7972;DHT22;4031;49.758;6.120;2024-01-30T14:47:42;9.90;99.90
7972;DHT22;4031;49.758;6.120;2024-01-30T14:50:08;9.90;99.90
7972;DHT22;4031;49.758;6.120;2024-01-30T14:52:35;9.90;99.90
7972;DHT22;4031;49.758;6.120;2024-01-30T14:55:01;9.90;99.90
7972;DHT22;4031;49.758;6.120;2024-01-30T14:57:27;9.90;99.90
7972;DHT22;4031;49.758;6.120;2024-01-30T14:59:53;9.90;99.90
7972;DHT22;4031;49.758;6.120;2024-01-30T15:02:19;9.90;99.90
7972;DHT22;4031;49.758;6.120;2024-01-30T15:04:45;9.90;99.90
7972;DHT22;4031;49.758;6.120;2024-01-30T15:07:11;9.90;99.90
7972;DHT22;4031;49.758;6.120;2024-01-30T15:09:37;9.90;99.90
7972;DHT22;4031;49.758;6.120;2024-01-30T15:12:03;9.90;99.90
7972;DHT22;4031;49.758;6.120;2024-01-30T15:14:29;9.90;99.90
7972;DHT22;4031;49.758;6.120;2024-01-30T15:16:55;9.90;99.90
7972;DHT22;4031;49.758;6.120;2024-01-30T15:19:21;9.90;99.90
7972;DHT22;4031;49.758;6.120;2024-01-30T15:21:46;9.80;99.90
7972;DHT22;4031;49.758;6.120;2024-01-30T15:24:12;9.80;99.90
7972;DHT22;4031;49.758;6.120;2024-01-30T15:26:40;9.70;99.90
7972;DHT22;4031;49.758;6.120;2024-01-30T15:29:06;9.70;99.90
7972;DHT22;4031;49.758;6.120;2024-01-30T15:31:32;9.70;99.90
7972;DHT22;4031;49.758;6.120;2024-01-30T15:33:57;9.70;99.90
7972;DHT22;4031;49.758;6.120;2024-01-30T15:36:23;9.60;99.90
7972;DHT22;4031;49.758;6.120;2024-01-30T15:38:49;9.60;99.90
7972;DHT22;4031;49.758;6.120;2024-01-30T15:41:15;9.60;99.90
7972;DHT22;4031;49.758;6.120;2024-01-30T15:43:41;9.50;99.90
7972;DHT22;4031;49.758;6.120;2024-01-30T15:46:06;9.50;99.90
7972;DHT22;4031;49.758;6.120;2024-01-30T15:48:32;9.50;99.90
7972;DHT22;4031;49.758;6.120;2024-01-30T15:50:58;9.50;99.90
7972;DHT22;4031;49.758;6.120;2024-01-30T15:53:26;9.50;99.90
7972;DHT22;4031;49.758;6.120;2024-01-30T15:55:52;9.50;99.90
7972;DHT22;4031;49.758;6.120;2024-01-30T15:58:18;9.50;99.90
7972;DHT22;4031;49.758;6.120;2024-01-30T16:00:44;9.40;99.90
7972;DHT22;4031;49.758;6.120;2024-01-30T16:03:09;9.40;99.90
7972;DHT22;4031;49.758;6.120;2024-01-30T16:05:35;9.30;99.90
7972;DHT22;4031;49.758;6.120;2024-01-30T16:08:01;9.30;99.90
7972;DHT22;4031;49.758;6.120;2024-01-30T16:10:27;9.30;99.90